Time;durP1;ratioP1;P1;durP2;ratioP2;P2;SDS_P1;SDS_P2;PMS_P1;PMS_P2;Temp;Humidity;BMP_temperature;BMP_pressure;BME280_temperature;BME280_humidity;BME280_pressure;Samples;Min_cycle;Max_cycle;Signal;HPM_P1;HPM_P2
2024/02/16 00:02:02;;;;;;;5.03;1.80;;;12.20;99.90;;;;;;4969261;28;20054;-80
2024/02/16 00:04:28;;;;;;;4.72;1.92;;;12.10;99.90;;;;;;4969601;28;20106;-79
2024/02/16 00:06:54;;;;;;;5.97;2.72;;;12.10;99.90;;;;;;4952633;28;20118;-80
2024/02/16 00:09:20;;;;;;;6.63;2.83;;;12.10;99.90;;;;;;4952218;28;20109;-81
2024/02/16 00:11:47;;;;;;;4.57;2.03;;;12.10;99.90;;;;;;4951955;28;20033;-81
2024/02/16 00:14:12;;;;;;;4.57;1.95;;;12.10;99.90;;;;;;4970015;28;20031;-81
2024/02/16 00:16:38;;;;;;;8.02;2.15;;;12.10;99.90;;;;;;4969555;28;20378;-80
2024/02/16 00:19:04;;;;;;;5.93;2.25;;;12.10;99.90;;;;;;4969750;28;20492;-80
2024/02/16 00:21:30;;;;;;;6.45;2.33;;;12.00;99.90;;;;;;4969406;28;20067;-80
2024/02/16 00:23:55;;;;;;;7.00;2.38;;;12.00;99.90;;;;;;4965469;28;20043;-81
2024/02/16 00:26:23;;;;;;;5.75;2.10;;;12.00;99.90;;;;;;4971107;28;20500;-80
2024/02/16 00:28:48;;;;;;;5.28;2.22;;;12.00;99.90;;;;;;4971167;28;20022;-81
2024/02/16 00:31:14;;;;;;;5.55;2.08;;;12.00;99.90;;;;;;4970648;28;20026;-80
2024/02/16 00:33:41;;;;;;;6.00;2.33;;;12.00;99.90;;;;;;4988643;28;20077;-80
2024/02/16 00:36:07;;;;;;;7.53;2.38;;;12.00;99.90;;;;;;4988560;28;20109;-80
2024/02/16 00:38:32;;;;;;;4.80;1.90;;;12.00;99.90;;;;;;4989143;28;20138;-81
2024/02/16 00:40:58;;;;;;;4.25;2.05;;;12.00;99.90;;;;;;4987863;28;20038;-81
2024/02/16 00:43:24;;;;;;;7.57;2.33;;;11.90;99.90;;;;;;4988671;28;20581;-81
2024/02/16 00:45:50;;;;;;;4.28;2.22;;;11.90;99.90;;;;;;4970697;28;20054;-80
2024/02/16 00:48:15;;;;;;;6.70;2.15;;;11.90;99.90;;;;;;4971333;28;20572;-80
2024/02/16 00:50:42;;;;;;;6.78;2.40;;;11.90;99.90;;;;;;4970386;28;20026;-81
2024/02/16 00:53:08;;;;;;;6.30;2.38;;;11.90;99.90;;;;;;4988746;28;20023;-80
2024/02/16 00:55:34;;;;;;;5.00;1.88;;;11.90;99.90;;;;;;4988005;28;20057;-80
2024/02/16 00:58:00;;;;;;;7.65;2.22;;;11.90;99.90;;;;;;4988880;28;20053;-81
2024/02/16 01:00:26;;;;;;;6.78;1.88;;;11.90;99.90;;;;;;4970241;28;20050;-81
2024/02/16 01:02:54;;;;;;;4.82;1.90;;;11.90;99.90;;;;;;4988135;28;20026;-81
2024/02/16 01:05:20;;;;;;;6.28;2.45;;;11.80;99.90;;;;;;4987964;28;20034;-80
2024/02/16 01:07:46;;;;;;;6.20;2.10;;;11.80;99.90;;;;;;4988322;28;20377;-80
2024/02/16 01:10:12;;;;;;;7.50;2.42;;;11.80;99.90;;;;;;4987936;28;20027;-80
2024/02/16 01:12:38;;;;;;;7.85;2.05;;;11.80;99.90;;;;;;4988350;28;20106;-80
2024/02/16 01:15:05;;;;;;;6.00;2.17;;;11.80;99.90;;;;;;4969770;28;20038;-80
2024/02/16 01:17:32;;;;;;;6.22;2.28;;;11.80;99.90;;;;;;4988028;28;20126;-81
2024/02/16 01:19:58;;;;;;;6.72;2.38;;;11.80;99.90;;;;;;4986775;28;20069;-80
2024/02/16 01:22:24;;;;;;;6.28;2.30;;;11.80;99.90;;;;;;4986545;28;20026;-80
2024/02/16 01:24:50;;;;;;;6.60;2.30;;;11.80;99.90;;;;;;4967439;28;20045;-80
2024/02/16 01:27:16;;;;;;;5.28;2.00;;;11.80;99.90;;;;;;4968866;28;20568;-81
2024/02/16 01:29:42;;;;;;;7.00;2.10;;;11.80;99.90;;;;;;4950679;28;20102;-80
2024/02/16 01:32:08;;;;;;;5.70;2.13;;;11.70;99.90;;;;;;4968376;28;20109;-78
2024/02/16 01:34:34;;;;;;;6.78;2.38;;;11.70;99.90;;;;;;4968508;28;20110;-81
2024/02/16 01:36:59;;;;;;;5.38;2.13;;;11.70;99.90;;;;;;4950479;28;20026;-78
2024/02/16 01:39:25;;;;;;;5.90;2.30;;;11.70;99.90;;;;;;4950878;28;20093;-78
2024/02/16 01:41:51;;;;;;;4.63;2.10;;;11.70;99.90;;;;;;4967714;28;20547;-79
2024/02/16 01:44:17;;;;;;;4.78;2.25;;;11.70;99.90;;;;;;4950753;28;20049;-80
2024/02/16 01:46:43;;;;;;;8.55;2.35;;;11.70;99.90;;;;;;4949665;28;20031;-82
2024/02/16 01:49:10;;;;;;;9.07;2.60;;;11.60;99.90;;;;;;4968156;28;20078;-79
2024/02/16 01:51:37;;;;;;;4.43;1.98;;;11.60;99.90;;;;;;4967536;28;20055;-79
2024/02/16 01:54:02;;;;;;;4.50;2.10;;;11.60;99.90;;;;;;4967465;28;20035;-79
2024/02/16 01:56:29;;;;;;;4.85;2.20;;;11.60;99.90;;;;;;4967162;28;20033;-79
2024/02/16 01:58:55;;;;;;;3.80;2.20;;;11.50;99.90;;;;;;4950078;28;20027;-79
2024/02/16 02:01:21;;;;;;;5.80;2.30;;;11.50;99.90;;;;;;4967802;28;20502;-79
2024/02/16 02:03:46;;;;;;;5.00;2.00;;;11.50;99.90;;;;;;4967735;28;20069;-79
2024/02/16 02:06:12;;;;;;;5.63;2.28;;;11.50;99.90;;;;;;4949939;28;20084;-79
2024/02/16 02:08:38;;;;;;;7.80;2.40;;;11.50;99.90;;;;;;4968307;28;20117;-78
2024/02/16 02:11:05;;;;;;;6.35;2.20;;;11.50;99.90;;;;;;4967216;28;20015;-78
2024/02/16 02:13:31;;;;;;;5.13;2.40;;;11.50;99.90;;;;;;4967825;28;20057;-79
2024/02/16 02:15:58;;;;;;;5.43;2.25;;;11.50;99.90;;;;;;4966972;28;20031;-77
2024/02/16 02:18:24;;;;;;;5.00;2.35;;;11.50;99.90;;;;;;4967723;28;20023;-79
2024/02/16 02:20:50;;;;;;;7.72;2.53;;;11.50;99.90;;;;;;4947099;28;20031;-78
2024/02/16 02:23:17;;;;;;;4.97;2.15;;;11.50;99.90;;;;;;4975421;28;20054;-79
2024/02/16 02:25:43;;;;;;;7.50;2.45;;;11.50;99.90;;;;;;4986200;28;20423;-79
2024/02/16 02:28:09;;;;;;;4.28;2.05;;;11.50;99.90;;;;;;4986219;28;20029;-78
2024/02/16 02:30:34;;;;;;;6.53;2.25;;;11.40;99.90;;;;;;4968505;28;20377;-78
2024/02/16 02:33:00;;;;;;;5.70;2.58;;;11.40;99.90;;;;;;4986516;28;20041;-78
2024/02/16 02:35:26;;;;;;;7.20;2.70;;;11.30;99.90;;;;;;4986105;28;20052;-79
2024/02/16 02:37:51;;;;;;;6.13;2.22;;;11.40;99.90;;;;;;4968623;28;20090;-78
2024/02/16 02:40:18;;;;;;;5.65;2.40;;;11.40;99.90;;;;;;4968351;28;20030;-79
2024/02/16 02:42:43;;;;;;;5.55;2.17;;;11.30;99.90;;;;;;4986451;28;20484;-78
2024/02/16 02:45:10;;;;;;;5.50;2.20;;;11.30;99.90;;;;;;4986053;28;20114;-78
2024/02/16 02:47:35;;;;;;;7.15;2.40;;;11.30;99.90;;;;;;4986740;28;20080;-78
2024/02/16 02:50:01;;;;;;;6.40;2.50;;;11.30;99.90;;;;;;4986378;28;20030;-79
2024/02/16 02:52:27;;;;;;;9.00;2.88;;;11.30;99.90;;;;;;4969222;28;20030;-78
2024/02/16 02:54:52;;;;;;;4.28;2.53;;;11.30;99.90;;;;;;4986487;28;20026;-78
2024/02/16 02:57:18;;;;;;;6.30;2.60;;;11.30;99.90;;;;;;4985856;28;20256;-79
2024/02/16 02:59:45;;;;;;;5.00;2.40;;;11.30;99.90;;;;;;4986308;28;20069;-78
2024/02/16 03:02:11;;;;;;;5.47;2.65;;;11.20;99.90;;;;;;4968311;28;20030;-79
2024/02/16 03:04:36;;;;;;;6.68;2.58;;;11.20;99.90;;;;;;4969029;28;20042;-78
2024/02/16 03:07:02;;;;;;;5.57;2.47;;;11.20;99.90;;;;;;4985963;28;20032;-77
2024/02/16 03:09:28;;;;;;;5.13;2.17;;;11.20;99.90;;;;;;4986569;28;20495;-79
2024/02/16 03:11:54;;;;;;;6.80;2.67;;;11.20;99.90;;;;;;4986042;28;20034;-78
2024/02/16 03:14:19;;;;;;;6.60;2.83;;;11.20;99.90;;;;;;4986078;28;20851;-79
2024/02/16 03:16:45;;;;;;;3.85;2.28;;;11.20;99.90;;;;;;4985642;28;20286;-79
2024/02/16 03:19:11;;;;;;;4.47;2.47;;;11.20;99.90;;;;;;4986249;28;20077;-78
2024/02/16 03:21:37;;;;;;;4.35;2.10;;;11.20;99.90;;;;;;4986122;28;20101;-78
2024/02/16 03:24:03;;;;;;;4.90;2.10;;;11.20;99.90;;;;;;4985931;28;20060;-78
2024/02/16 03:26:30;;;;;;;7.15;2.50;;;11.10;99.90;;;;;;4985716;28;20052;-80
2024/02/16 03:28:56;;;;;;;4.22;1.95;;;11.20;99.90;;;;;;4986166;28;20042;-80
2024/02/16 03:31:24;;;;;;;4.68;2.47;;;11.20;99.90;;;;;;4985865;28;20088;-79
2024/02/16 03:33:51;;;;;;;3.38;2.00;;;11.20;99.90;;;;;;4986234;28;20084;-80
2024/02/16 03:36:18;;;;;;;5.47;2.83;;;11.20;99.90;;;;;;4986011;28;20037;-80
2024/02/16 03:38:46;;;;;;;5.10;2.50;;;11.20;99.90;;;;;;4986185;28;20057;-79
2024/02/16 03:41:15;;;;;;;5.38;2.30;;;11.20;99.90;;;;;;4985711;28;20500;-80
2024/02/16 03:43:42;;;;;;;6.28;2.40;;;11.30;99.90;;;;;;4988093;28;20606;-80
2024/02/16 03:46:08;;;;;;;5.90;2.20;;;11.30;99.90;;;;;;4989571;28;20026;-80
2024/02/16 03:48:34;;;;;;;4.50;2.00;;;11.40;99.90;;;;;;4989836;28;20093;-80
2024/02/16 03:51:00;;;;;;;4.13;2.25;;;11.40;99.90;;;;;;4989762;28;20033;-80
2024/02/16 03:53:26;;;;;;;6.20;2.38;;;11.50;99.90;;;;;;4972077;28;20370;-80
2024/02/16 03:55:52;;;;;;;5.10;2.10;;;11.50;99.90;;;;;;4988668;28;20037;-79
2024/02/16 03:58:18;;;;;;;6.68;2.40;;;11.50;99.90;;;;;;4989792;28;20026;-80
2024/02/16 04:00:43;;;;;;;5.25;2.40;;;11.60;99.90;;;;;;4988700;28;20077;-80
2024/02/16 04:03:09;;;;;;;5.38;1.98;;;11.60;99.90;;;;;;4989473;28;20113;-79
2024/02/16 04:05:38;;;;;;;4.45;2.50;;;11.70;99.90;;;;;;4988642;28;20114;-79
2024/02/16 04:08:04;;;;;;;5.25;2.20;;;11.70;99.90;;;;;;4989395;28;20022;-80
2024/02/16 04:10:30;;;;;;;3.80;2.15;;;11.80;99.90;;;;;;4988829;28;20030;-79
2024/02/16 04:12:56;;;;;;;4.20;2.15;;;11.80;99.90;;;;;;4971768;28;20018;-80
2024/02/16 04:15:22;;;;;;;3.65;2.03;;;11.80;99.90;;;;;;4989364;28;20227;-79
2024/02/16 04:17:49;;;;;;;3.20;1.80;;;11.80;99.90;;;;;;4989285;28;20849;-79
2024/02/16 04:20:16;;;;;;;4.72;2.55;;;11.90;99.90;;;;;;4988787;28;20040;-79
2024/02/16 04:22:42;;;;;;;5.63;2.50;;;11.90;99.90;;;;;;4988958;28;20448;-78
2024/02/16 04:25:08;;;;;;;4.82;2.10;;;11.90;99.90;;;;;;4988905;28;20114;-79
2024/02/16 04:27:35;;;;;;;4.50;2.20;;;12.00;99.90;;;;;;4988988;28;20026;-79
2024/02/16 04:30:01;;;;;;;5.70;2.33;;;12.10;99.90;;;;;;4989088;28;20404;-79
2024/02/16 04:32:27;;;;;;;5.22;2.10;;;12.10;99.90;;;;;;4988535;28;20022;-79
2024/02/16 04:34:53;;;;;;;6.22;2.78;;;12.20;99.90;;;;;;4971186;28;20045;-79
2024/02/16 04:37:19;;;;;;;9.30;2.55;;;12.20;99.90;;;;;;4988227;28;20022;-79
2024/02/16 04:39:45;;;;;;;5.75;2.45;;;12.20;99.90;;;;;;4971228;28;20455;-78
2024/02/16 04:42:11;;;;;;;3.83;2.00;;;12.30;99.90;;;;;;4988187;28;20027;-79
2024/02/16 04:44:39;;;;;;;4.72;2.40;;;12.30;99.90;;;;;;4988901;28;20499;-79
2024/02/16 04:47:06;;;;;;;5.88;2.40;;;12.30;99.90;;;;;;4988310;28;20093;-79
2024/02/16 04:49:32;;;;;;;5.10;2.08;;;12.30;99.90;;;;;;4971063;28;20022;-77
2024/02/16 04:51:57;;;;;;;5.18;2.17;;;12.40;99.90;;;;;;4987708;28;20026;-79
2024/02/16 04:54:24;;;;;;;3.90;2.28;;;12.40;99.90;;;;;;4988279;28;20044;-80
2024/02/16 04:56:50;;;;;;;6.20;2.65;;;12.40;99.90;;;;;;4970507;28;20114;-80
2024/02/16 04:59:16;;;;;;;3.95;2.13;;;12.40;99.90;;;;;;4988656;28;20121;-80
2024/02/16 05:01:45;;;;;;;5.88;2.28;;;12.50;99.90;;;;;;4970689;28;20412;-79
2024/02/16 05:04:16;;;;;;;4.60;2.40;;;12.50;99.90;;;;;;4988561;28;20113;-79
2024/02/16 05:06:43;;;;;;;;;;;12.60;99.90;;;;;;4988284;28;20526;-80
2024/02/16 05:09:09;;;;;;;4.47;2.40;;;12.60;99.90;;;;;;4988367;28;20331;-79
2024/02/16 05:11:35;;;;;;;5.28;2.40;;;12.70;99.90;;;;;;4987821;28;20484;-80
2024/02/16 05:14:01;;;;;;;5.53;2.60;;;12.70;99.90;;;;;;4988205;28;20030;-78
2024/02/16 05:16:27;;;;;;;5.57;2.20;;;12.70;99.90;;;;;;4987764;28;20073;-79
2024/02/16 05:18:56;;;;;;;3.90;1.98;;;12.70;99.90;;;;;;4988049;28;20018;-80
2024/02/16 05:21:22;;;;;;;6.60;2.92;;;12.80;99.90;;;;;;4991210;28;20156;-79
2024/02/16 05:23:48;;;;;;;4.43;2.33;;;12.80;99.90;;;;;;4978750;28;20051;-79
2024/02/16 05:26:13;;;;;;;5.00;2.70;;;12.80;99.90;;;;;;4987093;28;20539;-79
2024/02/16 05:28:39;;;;;;;5.78;2.25;;;12.80;99.90;;;;;;4987943;28;20030;-79
2024/02/16 05:31:17;;;;;;;4.43;2.47;;;12.80;99.90;;;;;;4987590;28;20593;-80
2024/02/16 05:33:50;;;;;;;4.45;2.60;;;12.90;99.90;;;;;;4987635;28;20038;-79
2024/02/16 05:36:27;;;;;;;4.70;2.42;;;12.90;99.90;;;;;;4987256;28;20019;-79
2024/02/16 05:38:55;;;;;;;7.45;2.50;;;12.90;99.90;;;;;;4969903;28;20030;-79
2024/02/16 05:41:21;;;;;;;7.72;2.30;;;13.00;99.90;;;;;;4987708;28;20030;-78
2024/02/16 05:43:48;;;;;;;4.57;2.30;;;13.00;99.90;;;;;;4987367;28;20026;-78
2024/02/16 05:46:17;;;;;;;4.45;2.47;;;13.00;99.90;;;;;;4969879;28;20050;-77
2024/02/16 05:48:44;;;;;;;5.93;2.80;;;13.00;99.90;;;;;;4987133;28;20018;-78
2024/02/16 05:51:12;;;;;;;4.28;2.95;;;13.00;99.90;;;;;;4987133;28;20033;-79
2024/02/16 05:53:38;;;;;;;4.88;2.22;;;13.00;99.90;;;;;;4970174;28;20029;-78
2024/02/16 05:56:05;;;;;;;5.15;2.60;;;13.00;99.90;;;;;;4986865;28;20026;-79
2024/02/16 05:58:31;;;;;;;7.63;2.38;;;13.00;99.90;;;;;;4987720;28;20384;-79
2024/02/16 06:00:57;;;;;;;5.63;2.65;;;13.00;99.90;;;;;;4986617;28;20018;-79
2024/02/16 06:03:23;;;;;;;5.25;2.58;;;13.00;99.90;;;;;;4987024;28;20046;-78
2024/02/16 06:05:49;;;;;;;6.20;2.58;;;13.00;99.90;;;;;;4985735;28;20019;-79
2024/02/16 06:08:19;;;;;;;6.60;2.80;;;13.00;99.90;;;;;;4987243;28;20121;-79
2024/02/16 06:10:50;;;;;;;5.28;2.53;;;13.00;99.90;;;;;;4994913;28;20022;-78
2024/02/16 06:13:17;;;;;;;4.88;2.88;;;13.10;99.90;;;;;;4969444;28;20030;-79
2024/02/16 06:15:43;;;;;;;5.80;2.47;;;13.10;99.90;;;;;;4986468;28;20435;-78
2024/02/16 06:18:09;;;;;;;5.82;2.28;;;13.10;99.90;;;;;;4987131;28;20026;-79
2024/02/16 06:20:35;;;;;;;6.13;2.55;;;13.10;99.90;;;;;;4991400;28;20027;-80
2024/02/16 06:23:01;;;;;;;6.25;3.08;;;13.10;99.90;;;;;;4986570;28;20597;-79
2024/02/16 06:25:27;;;;;;;5.85;2.90;;;13.10;99.90;;;;;;4969700;28;20029;-79
2024/02/16 06:27:53;;;;;;;5.50;2.67;;;13.20;99.90;;;;;;4968753;28;20030;-80
2024/02/16 06:30:19;;;;;;;5.20;2.60;;;13.20;99.90;;;;;;4986715;28;20097;-78
2024/02/16 06:32:44;;;;;;;5.10;2.60;;;13.20;99.90;;;;;;4986488;28;20082;-78
2024/02/16 06:35:11;;;;;;;5.22;2.63;;;13.20;99.90;;;;;;4986748;28;20129;-78
2024/02/16 06:37:39;;;;;;;6.28;2.67;;;13.20;99.90;;;;;;4986435;28;20022;-79
2024/02/16 06:40:06;;;;;;;4.32;2.38;;;13.20;99.90;;;;;;4986597;28;20030;-78
2024/02/16 06:42:33;;;;;;;6.18;2.60;;;13.20;99.90;;;;;;4986074;28;20026;-80
2024/02/16 06:45:00;;;;;;;6.30;3.00;;;13.20;99.90;;;;;;4986450;28;20026;-81
2024/02/16 06:47:25;;;;;;;6.22;2.80;;;13.20;99.90;;;;;;4986007;28;20037;-78
2024/02/16 06:49:51;;;;;;;5.53;2.90;;;13.20;99.90;;;;;;4986601;28;20026;-78
2024/02/16 06:52:17;;;;;;;5.63;2.92;;;13.20;99.90;;;;;;4986190;28;21152;-78
2024/02/16 06:54:43;;;;;;;5.40;2.47;;;13.20;99.90;;;;;;4985044;28;20507;-78
2024/02/16 06:57:08;;;;;;;7.30;3.00;;;13.20;99.90;;;;;;4981374;28;20473;-79
2024/02/16 06:59:34;;;;;;;4.88;2.75;;;13.20;99.90;;;;;;4986450;28;20030;-79
2024/02/16 07:02:00;;;;;;;5.25;2.80;;;13.20;99.90;;;;;;4984902;28;20026;-78
2024/02/16 07:04:25;;;;;;;5.32;2.80;;;13.20;99.90;;;;;;4985897;28;20022;-79
2024/02/16 07:06:52;;;;;;;8.20;3.15;;;13.10;99.90;;;;;;4979280;28;20485;-79
2024/02/16 07:09:17;;;;;;;4.95;3.08;;;13.10;99.90;;;;;;4986186;28;20029;-79
2024/02/16 07:11:46;;;;;;;7.38;2.67;;;13.10;99.90;;;;;;4985602;28;20022;-78
2024/02/16 07:14:12;;;;;;;7.28;2.90;;;13.10;99.90;;;;;;4967935;28;20076;-77
2024/02/16 07:16:38;;;;;;;7.50;2.88;;;13.10;99.90;;;;;;4973469;28;20033;-78
2024/02/16 07:19:05;;;;;;;6.40;3.17;;;13.10;99.90;;;;;;4976694;28;20117;-78
2024/02/16 07:21:30;;;;;;;20.02;3.45;;;13.10;99.90;;;;;;4989190;28;20069;-78
2024/02/16 07:23:57;;;;;;;7.75;3.42;;;13.10;99.90;;;;;;4980261;28;20054;-79
2024/02/16 07:26:23;;;;;;;7.80;2.83;;;13.10;99.90;;;;;;4987814;28;20041;-79
2024/02/16 07:28:48;;;;;;;6.50;3.08;;;13.10;99.90;;;;;;4989505;28;20427;-79
2024/02/16 07:31:14;;;;;;;8.23;3.15;;;13.10;99.90;;;;;;4965493;28;20027;-78
2024/02/16 07:33:40;;;;;;;6.97;3.10;;;13.10;99.90;;;;;;4989837;28;20015;-78
2024/02/16 07:36:06;;;;;;;5.05;2.88;;;13.10;99.90;;;;;;4971676;28;20030;-78
2024/02/16 07:38:32;;;;;;;9.18;3.47;;;13.10;99.90;;;;;;4981455;28;20046;-78
2024/02/16 07:40:59;;;;;;;8.43;3.17;;;13.10;99.90;;;;;;4987075;28;20069;-78
2024/02/16 07:43:27;;;;;;;6.25;3.00;;;13.10;99.90;;;;;;4989376;28;20368;-79
2024/02/16 07:45:55;;;;;;;7.13;3.05;;;13.20;99.90;;;;;;4989580;28;20551;-78
2024/02/16 07:48:21;;;;;;;6.57;2.97;;;13.20;99.90;;;;;;4966669;28;20026;-78
2024/02/16 07:50:48;;;;;;;7.00;3.00;;;13.20;99.90;;;;;;4989810;28;20045;-78
2024/02/16 07:53:14;;;;;;;6.10;3.10;;;13.30;99.90;;;;;;4971843;28;20109;-78
2024/02/16 07:55:40;;;;;;;8.07;3.10;;;13.30;99.90;;;;;;4989660;28;20559;-79
2024/02/16 07:58:05;;;;;;;11.20;3.50;;;13.30;99.90;;;;;;4989226;28;20053;-78
2024/02/16 08:00:31;;;;;;;8.82;3.10;;;13.30;99.90;;;;;;4989578;28;20024;-78
2024/02/16 08:02:57;;;;;;;9.95;3.15;;;13.30;99.90;;;;;;4989279;28;20034;-79
2024/02/16 08:05:24;;;;;;;8.50;3.10;;;13.30;99.90;;;;;;4989657;28;20073;-79
2024/02/16 08:07:50;;;;;;;6.40;3.03;;;13.30;99.90;;;;;;4970497;28;20038;-78
2024/02/16 08:10:22;;;;;;;7.50;2.88;;;13.30;99.90;;;;;;4988210;28;20672;-78
2024/02/16 08:12:48;;;;;;;6.95;3.13;;;13.40;99.90;;;;;;4986452;28;20034;-78
2024/02/16 08:15:13;;;;;;;6.85;2.80;;;13.40;99.90;;;;;;4989125;28;20101;-78
2024/02/16 08:17:40;;;;;;;8.38;3.03;;;13.40;99.90;;;;;;4988659;28;20118;-78
2024/02/16 08:20:06;;;;;;;5.70;3.10;;;13.40;99.90;;;;;;4970531;28;20066;-79
2024/02/16 08:22:32;;;;;;;5.40;2.70;;;13.50;99.90;;;;;;4988400;28;20113;-78
2024/02/16 08:24:58;;;;;;;7.88;3.20;;;13.50;99.90;;;;;;4988637;28;20035;-78
2024/02/16 08:27:24;;;;;;;5.55;3.13;;;13.50;99.90;;;;;;4970180;28;20018;-79
2024/02/16 08:29:51;;;;;;;7.05;2.97;;;13.60;99.90;;;;;;4987351;28;20030;-78
2024/02/16 08:32:19;;;;;;;8.15;3.40;;;13.60;99.90;;;;;;4970388;28;20037;-77
2024/02/16 08:34:45;;;;;;;6.63;3.10;;;13.60;99.90;;;;;;4982266;28;20510;-78
2024/02/16 08:37:11;;;;;;;7.18;3.40;;;13.60;99.90;;;;;;4988315;28;20034;-78
2024/02/16 08:39:38;;;;;;;7.13;2.97;;;13.70;99.90;;;;;;4968072;28;20445;-78
2024/02/16 08:42:03;;;;;;;6.25;3.47;;;13.70;99.90;;;;;;4987766;28;20056;-77
2024/02/16 08:44:29;;;;;;;7.10;2.90;;;13.70;99.90;;;;;;4988025;28;20030;-78
2024/02/16 08:46:56;;;;;;;6.72;2.90;;;13.80;99.90;;;;;;4966795;28;20031;-77
2024/02/16 08:49:21;;;;;;;5.05;2.78;;;13.80;99.90;;;;;;4988093;28;20029;-78
2024/02/16 08:51:48;;;;;;;7.78;3.22;;;13.80;99.90;;;;;;4968973;28;20034;-77
2024/02/16 08:54:14;;;;;;;8.35;3.50;;;13.80;99.90;;;;;;4990828;28;20030;-77
2024/02/16 08:56:40;;;;;;;11.40;3.45;;;13.80;99.90;;;;;;4967885;28;20054;-77
2024/02/16 08:59:07;;;;;;;20.00;3.55;;;13.90;99.90;;;;;;4986571;28;20026;-77
2024/02/16 09:01:34;;;;;;;8.30;3.03;;;13.90;99.90;;;;;;4984004;28;20161;-76
2024/02/16 09:04:01;;;;;;;6.30;2.85;;;13.90;99.90;;;;;;4986758;28;20038;-77
2024/02/16 09:06:29;;;;;;;5.78;3.28;;;13.90;99.90;;;;;;4963181;28;20028;-77
2024/02/16 09:08:56;;;;;;;8.38;3.45;;;13.90;99.90;;;;;;4982458;28;20022;-77
2024/02/16 09:11:22;;;;;;;7.85;3.15;;;14.00;99.90;;;;;;4999095;28;20030;-77
2024/02/16 09:13:48;;;;;;;8.07;3.35;;;14.00;99.90;;;;;;4967930;28;20169;-76
2024/02/16 09:16:14;;;;;;;6.38;3.20;;;14.00;99.90;;;;;;4986185;28;20105;-76
2024/02/16 09:18:39;;;;;;;8.45;3.67;;;14.00;99.90;;;;;;4986687;28;20030;-77
2024/02/16 09:21:06;;;;;;;6.80;3.17;;;14.00;99.90;;;;;;4970228;28;20081;-77
2024/02/16 09:23:33;;;;;;;8.93;4.18;;;14.00;99.90;;;;;;4986565;28;20177;-77
2024/02/16 09:25:59;;;;;;;7.35;3.50;;;14.00;99.90;;;;;;4987758;28;20026;-77
2024/02/16 09:28:26;;;;;;;5.93;3.38;;;14.00;99.90;;;;;;4969232;28;20500;-78
2024/02/16 09:30:52;;;;;;;7.57;3.63;;;14.10;99.90;;;;;;4987628;28;20030;-78
2024/02/16 09:33:18;;;;;;;8.52;3.33;;;14.10;99.90;;;;;;4986650;28;20015;-77
2024/02/16 09:35:43;;;;;;;6.45;3.42;;;14.00;99.90;;;;;;4983981;28;20034;-76
2024/02/16 09:38:10;;;;;;;7.30;3.50;;;14.00;99.90;;;;;;4986090;28;20045;-76
2024/02/16 09:40:37;;;;;;;7.22;3.40;;;14.10;99.90;;;;;;4979955;28;20030;-75
2024/02/16 09:43:02;;;;;;;12.32;4.22;;;14.10;99.90;;;;;;4985865;28;20038;-76
2024/02/16 09:45:31;;;;;;;7.63;3.63;;;14.10;99.90;;;;;;4987180;28;20014;-76
2024/02/16 09:47:58;;;;;;;8.57;3.75;;;14.10;99.90;;;;;;4985859;28;20456;-75
2024/02/16 09:50:24;;;;;;;9.57;3.67;;;14.10;99.90;;;;;;4969845;28;20021;-76
2024/02/16 09:52:50;;;;;;;7.22;4.05;;;14.10;99.90;;;;;;4986613;28;20026;-76
2024/02/16 09:55:17;;;;;;;7.32;3.75;;;14.10;99.90;;;;;;4969435;28;20512;-75
2024/02/16 09:57:43;;;;;;;7.32;3.72;;;14.10;99.90;;;;;;4986215;28;20035;-76
2024/02/16 10:00:10;;;;;;;8.00;3.92;;;14.10;99.90;;;;;;4997095;28;20029;-76
2024/02/16 10:02:46;;;;;;;6.35;3.33;;;14.10;99.90;;;;;;4965659;28;20038;-76
2024/02/16 10:05:16;;;;;;;8.45;3.60;;;14.10;99.90;;;;;;4982894;28;20676;-75
2024/02/16 10:07:43;;;;;;;10.25;4.35;;;14.10;99.90;;;;;;4968106;28;20048;-76
2024/02/16 10:10:30;;;;;;;8.35;3.45;;;14.10;99.90;;;;;;4986909;28;20054;-76
2024/02/16 10:13:04;;;;;;;8.43;3.80;;;14.10;99.90;;;;;;4985010;28;20053;-76
2024/02/16 10:15:30;;;;;;;7.63;3.95;;;14.10;99.90;;;;;;4986652;28;20053;-76
2024/02/16 10:18:02;;;;;;;7.88;4.40;;;14.20;99.90;;;;;;4985455;28;20030;-77
2024/02/16 10:20:29;;;;;;;10.20;4.45;;;14.20;99.90;;;;;;4966958;28;20036;-77
2024/02/16 10:23:06;;;;;;;7.55;3.88;;;14.20;99.90;;;;;;4968072;28;20084;-77
2024/02/16 10:25:32;;;;;;;10.57;4.13;;;14.20;99.90;;;;;;4968562;28;20042;-77
2024/02/16 10:28:02;;;;;;;8.95;3.90;;;14.20;99.90;;;;;;4985090;28;20022;-77
2024/02/16 10:30:33;;;;;;;11.43;3.88;;;14.20;99.90;;;;;;4977705;28;20025;-77
2024/02/16 10:32:59;;;;;;;7.90;3.70;;;14.20;99.90;;;;;;4985814;28;20029;-78
2024/02/16 10:35:28;;;;;;;8.40;4.30;;;14.20;99.90;;;;;;4986661;28;20022;-77
2024/02/16 10:37:55;;;;;;;5.88;3.92;;;14.20;99.90;;;;;;4985598;28;20034;-77
2024/02/16 10:40:23;;;;;;;9.73;4.05;;;14.20;99.90;;;;;;4986613;28;20526;-76
2024/02/16 10:42:51;;;;;;;9.43;4.15;;;14.20;99.90;;;;;;4975822;28;20157;-77
2024/02/16 10:45:20;;;;;;;8.20;4.45;;;14.20;99.90;;;;;;4968532;28;20058;-77
2024/02/16 10:47:46;;;;;;;8.77;4.07;;;14.20;99.90;;;;;;4985222;28;20050;-76
2024/02/16 10:50:12;;;;;;;9.98;4.18;;;14.20;99.90;;;;;;4968244;28;20267;-77
2024/02/16 10:52:42;;;;;;;7.50;4.38;;;14.20;99.90;;;;;;4986662;28;20029;-77
2024/02/16 10:55:09;;;;;;;9.18;3.97;;;14.10;99.90;;;;;;4968072;28;20045;-77
2024/02/16 10:57:40;;;;;;;7.90;3.88;;;14.10;99.90;;;;;;4981437;28;20026;-77
2024/02/16 11:00:10;;;;;;;8.40;4.35;;;14.10;99.90;;;;;;4967261;28;20492;-77
2024/02/16 11:02:56;;;;;;;10.65;5.15;;;14.10;99.90;;;;;;4985387;28;20070;-77
2024/02/16 11:05:34;;;;;;;9.30;4.80;;;14.10;99.90;;;;;;4989241;28;20037;-76
2024/02/16 11:08:13;;;;;;;8.65;4.10;;;14.00;99.90;;;;;;4978938;28;20221;-76
2024/02/16 11:10:38;;;;;;;8.50;4.85;;;14.00;99.90;;;;;;4980211;28;20113;-75
2024/02/16 11:13:05;;;;;;;9.15;4.90;;;14.00;99.90;;;;;;4984583;28;20117;-77
2024/02/16 11:15:35;;;;;;;11.40;5.38;;;13.90;99.90;;;;;;4985836;28;20026;-76
2024/02/16 11:18:02;;;;;;;9.25;4.60;;;13.80;99.90;;;;;;4984917;28;20041;-78
2024/02/16 11:20:28;;;;;;;10.80;5.13;;;13.80;99.90;;;;;;4968768;28;20448;-77
2024/02/16 11:23:11;;;;;;;9.48;5.03;;;13.70;99.90;;;;;;4966469;28;20049;-78
2024/02/16 11:25:38;;;;;;;11.32;5.47;;;13.70;99.90;;;;;;4983725;28;20030;-77
2024/02/16 11:28:04;;;;;;;11.20;5.20;;;13.70;99.90;;;;;;4984693;28;20049;-77
2024/02/16 11:30:34;;;;;;;13.27;6.00;;;13.60;99.90;;;;;;4968478;28;20025;-77
2024/02/16 11:33:00;;;;;;;12.38;5.75;;;13.60;99.90;;;;;;4985264;28;20022;-76
2024/02/16 11:35:26;;;;;;;13.45;6.32;;;13.60;99.90;;;;;;4986067;28;20580;-76
2024/02/16 11:37:52;;;;;;;12.57;6.22;;;13.50;99.90;;;;;;4962553;28;20026;-77
2024/02/16 11:40:19;;;;;;;12.15;6.22;;;13.50;99.90;;;;;;4983030;28;20039;-75
2024/02/16 11:42:46;;;;;;;12.10;6.35;;;13.40;99.90;;;;;;4982421;28;20030;-77
2024/02/16 11:45:12;;;;;;;11.30;7.05;;;13.40;99.90;;;;;;4984614;28;20271;-76
2024/02/16 11:47:38;;;;;;;9.32;5.97;;;13.40;99.90;;;;;;4973762;28;20562;-76
2024/02/16 11:50:11;;;;;;;15.55;7.22;;;13.30;99.90;;;;;;4985335;28;20022;-78
2024/02/16 11:52:40;;;;;;;14.43;7.18;;;13.30;99.90;;;;;;4973265;28;20041;-77
2024/02/16 11:55:10;;;;;;;12.73;7.03;;;13.30;99.90;;;;;;4967810;28;20041;-77
2024/02/16 11:57:38;;;;;;;13.95;7.07;;;13.20;99.90;;;;;;4970210;28;20064;-76
2024/02/16 12:00:07;;;;;;;11.55;7.63;;;13.20;99.90;;;;;;4993539;28;20054;-78
2024/02/16 12:02:38;;;;;;;12.40;7.38;;;13.20;99.90;;;;;;4984471;28;21486;-77
2024/02/16 12:05:05;;;;;;;12.27;7.35;;;13.10;99.90;;;;;;4996910;28;20197;-77
2024/02/16 12:07:32;;;;;;;11.50;6.90;;;13.20;99.90;;;;;;4987823;28;20030;-76
2024/02/16 12:10:00;;;;;;;14.40;8.02;;;13.10;99.90;;;;;;4970240;28;20034;-76
2024/02/16 12:12:27;;;;;;;13.20;7.28;;;13.10;99.90;;;;;;4970678;28;20025;-75
2024/02/16 12:14:54;;;;;;;10.93;7.35;;;13.10;99.90;;;;;;4989293;28;20073;-76
2024/02/16 12:17:19;;;;;;;13.23;7.20;;;13.10;99.90;;;;;;4989074;28;20038;-75
2024/02/16 12:19:46;;;;;;;10.75;6.75;;;13.10;99.90;;;;;;4987475;28;20208;-75
2024/02/16 12:22:18;;;;;;;10.20;6.50;;;13.10;99.90;;;;;;4987505;28;20502;-75
2024/02/16 12:24:48;;;;;;;11.63;7.43;;;13.10;99.90;;;;;;4968539;28;20090;-76
2024/02/16 12:27:14;;;;;;;15.60;7.07;;;13.10;99.90;;;;;;4967511;28;20029;-77
2024/02/16 12:29:40;;;;;;;11.75;7.30;;;13.10;99.90;;;;;;4966895;28;20504;-77
2024/02/16 12:32:06;;;;;;;10.00;6.60;;;13.00;99.90;;;;;;4966767;28;20042;-76
2024/02/16 12:34:33;;;;;;;13.38;7.05;;;13.00;99.90;;;;;;4967406;28;20516;-76
2024/02/16 12:36:59;;;;;;;11.48;6.43;;;13.00;99.90;;;;;;4966844;28;20472;-76
2024/02/16 12:39:24;;;;;;;10.82;6.25;;;13.00;99.90;;;;;;4967208;28;20022;-76
2024/02/16 12:41:50;;;;;;;8.98;6.40;;;13.00;99.90;;;;;;4967116;28;20059;-76
2024/02/16 12:44:16;;;;;;;11.95;6.15;;;13.00;99.90;;;;;;4966937;28;20493;-76